Time;durP1;ratioP1;P1;durP2;ratioP2;P2;SDS_P1;SDS_P2;PMS_P1;PMS_P2;Temp;Humidity;BMP_temperature;BMP_pressure;BME280_temperature;BME280_humidity;BME280_pressure;Samples;Min_cycle;Max_cycle;Signal;HPM_P1;HPM_P2
2023/04/19 00:05:21;;;;;;;;;;;;;;;5.02;100.00;98062.78;18304934;32;19958;-59
2023/04/19 00:15:24;;;;;;;;;;;;;;;4.87;100.00;98055.09;18304384;32;19993;-59
2023/04/19 00:25:27;;;;;;;;;;;;;;;4.71;100.00;98059.19;18303770;32;19985;-59
2023/04/19 00:35:29;;;;;;;;;;;;;;;4.56;100.00;98046.16;18303516;32;19957;-59
2023/04/19 00:45:33;;;;;;;;;;;;;;;4.45;100.00;98044.22;18302684;32;19981;-59
2023/04/19 00:55:37;;;;;;;;;;;;;;;4.33;100.00;98047.63;18302506;32;19978;-59
2023/04/19 01:05:40;;;;;;;;;;;;;;;4.20;100.00;98037.84;18301407;32;19956;-59
2023/04/19 01:15:42;;;;;;;;;;;;;;;4.05;100.00;98032.81;18301178;32;19950;-59
2023/04/19 01:25:46;;;;;;;;;;;;;;;4.01;100.00;98033.47;18301488;32;19995;-59
2023/04/19 01:35:49;;;;;;;;;;;;;;;4.10;100.00;98036.69;18300548;32;19945;-59
2023/04/19 01:45:51;;;;;;;;;;;;;;;4.47;100.00;98029.56;18299993;32;19990;-59
2023/04/19 01:55:54;;;;;;;;;;;;;;;4.81;100.00;98032.72;18285936;32;19972;-59
2023/04/19 02:05:56;;;;;;;;;;;;;;;5.09;100.00;98020.63;18299112;32;19953;-59
2023/04/19 02:16:01;;;;;;;;;;;;;;;5.37;100.00;98012.00;18297666;32;19989;-59
2023/04/19 02:26:03;;;;;;;;;;;;;;;5.54;100.00;98016.72;18298035;32;20048;-59
2023/04/19 02:36:05;;;;;;;;;;;;;;;5.66;100.00;98014.88;18283993;32;19949;-59
2023/04/19 02:46:09;;;;;;;;;;;;;;;5.80;100.00;98003.94;18283284;32;20318;-60
2023/04/19 02:56:11;;;;;;;;;;;;;;;5.80;100.00;98003.94;18296750;32;19972;-59
2023/04/19 03:06:15;;;;;;;;;;;;;;;5.65;100.00;98001.72;18296030;32;19954;-59
2023/04/19 03:16:17;;;;;;;;;;;;;;;5.72;100.00;97997.84;18295379;32;19950;-59
2023/04/19 03:26:20;;;;;;;;;;;;;;;5.87;100.00;98002.78;18281322;32;19982;-59
2023/04/19 03:36:22;;;;;;;;;;;;;;;6.02;100.00;98012.31;18294906;32;19945;-59
2023/04/19 03:46:25;;;;;;;;;;;;;;;6.13;100.00;98008.81;18280402;32;19949;-59
2023/04/19 03:56:27;;;;;;;;;;;;;;;6.26;100.00;97995.16;18294141;32;19957;-59
2023/04/19 04:06:29;;;;;;;;;;;;;;;6.33;100.00;97996.87;18293485;32;19993;-59
2023/04/19 04:16:31;;;;;;;;;;;;;;;6.35;100.00;97992.91;18293269;32;19946;-59
2023/04/19 04:26:38;;;;;;;;;;;;;;;6.28;100.00;97984.19;18293038;32;20298;-59
2023/04/19 04:36:40;;;;;;;;;;;;;;;6.24;100.00;97988.37;18278799;32;19972;-59
2023/04/19 04:46:43;;;;;;;;;;;;;;;6.17;100.00;97998.44;18301493;32;19997;-59
2023/04/19 04:56:45;;;;;;;;;;;;;;;6.17;100.00;98009.16;18288038;32;19972;-59
2023/04/19 05:06:47;;;;;;;;;;;;;;;6.27;100.00;98009.38;18302408;32;19961;-59
2023/04/19 05:16:49;;;;;;;;;;;;;;;6.30;100.00;97997.37;18287605;32;20299;-59
2023/04/19 05:26:52;;;;;;;;;;;;;;;6.33;100.00;98016.53;18287392;32;19968;-59
2023/04/19 05:36:54;;;;;;;;;;;;;;;6.57;100.00;98021.88;18286941;32;19985;-59
2023/04/19 05:46:57;;;;;;;;;;;;;;;6.85;100.00;98026.50;18299829;32;19957;-59
2023/04/19 05:57:00;;;;;;;;;;;;;;;7.07;100.00;98023.16;18299499;32;19941;-59
2023/04/19 06:07:02;;;;;;;;;;;;;;;7.29;100.00;98026.03;18285243;32;20317;-60
2023/04/19 06:17:09;;;;;;;;;;;;;;;7.52;100.00;98025.09;18298642;32;19953;-60
2023/04/19 06:27:11;;;;;;;;;;;;;;;7.85;100.00;98038.88;18284295;32;19960;-59
2023/04/19 06:37:13;;;;;;;;;;;;;;;8.20;100.00;98025.16;18297573;32;19945;-59
2023/04/19 06:47:16;;;;;;;;;;;;;;;8.48;100.00;98028.84;18296712;32;19964;-60
2023/04/19 06:57:18;;;;;;;;;;;;;;;8.95;100.00;98027.59;18296422;32;19945;-59
2023/04/19 07:07:21;;;;;;;;;;;;;;;9.32;100.00;98035.84;18282122;32;20310;-59
2023/04/19 07:17:23;;;;;;;;;;;;;;;9.63;100.00;98030.78;18295587;32;20321;-59
2023/04/19 07:27:25;;;;;;;;;;;;;;;9.86;100.00;98030.72;18281565;32;19964;-60
2023/04/19 07:37:29;;;;;;;;;;;;;;;10.21;100.00;98029.38;18294626;32;19949;-59
2023/04/19 07:47:31;;;;;;;;;;;;;;;10.60;100.00;98026.44;18294133;32;20361;-59
2023/04/19 07:57:34;;;;;;;;;;;;;;;10.75;100.00;98036.53;18293909;32;19990;-59
2023/04/19 08:07:37;;;;;;;;;;;;;;;11.30;100.00;98040.56;18280102;32;19953;-59
2023/04/19 08:17:41;;;;;;;;;;;;;;;11.91;100.00;98035.53;18299318;32;19961;-59
2023/04/19 08:27:44;;;;;;;;;;;;;;;12.05;100.00;98031.25;18303866;32;20045;-59
2023/04/19 08:37:48;;;;;;;;;;;;;;;12.55;100.00;98020.63;18289667;32;19946;-57
2023/04/19 08:47:51;;;;;;;;;;;;;;;13.03;100.00;98021.06;18302768;32;19975;-57
2023/04/19 08:58:02;;;;;;;;;;;;;;;13.00;100.00;98016.16;18288453;32;19942;-58
2023/04/19 09:08:24;;;;;;;;;;;;;;;13.73;100.00;98024.78;18302137;32;20269;-57
2023/04/19 09:18:26;;;;;;;;;;;;;;;13.83;91.79;98018.50;18301578;32;19982;-58
2023/04/19 09:28:33;;;;;;;;;;;;;;;13.90;89.85;98011.63;18300421;32;19953;-58
2023/04/19 09:38:48;;;;;;;;;;;;;;;14.42;92.06;98000.34;18274218;32;19968;-58
2023/04/19 09:48:51;;;;;;;;;;;;;;;14.44;88.41;97997.31;18299829;32;19960;-58
2023/04/19 09:58:53;;;;;;;;;;;;;;;14.64;83.87;97985.44;18299498;32;19949;-58
2023/04/19 10:09:14;;;;;;;;;;;;;;;14.45;85.58;97974.47;18299196;32;19993;-58
2023/04/19 10:19:18;;;;;;;;;;;;;;;15.11;86.85;97972.91;18298358;32;20003;-58
2023/04/19 10:29:39;;;;;;;;;;;;;;;15.17;78.82;97966.28;18298150;32;20000;-58
2023/04/19 10:39:43;;;;;;;;;;;;;;;14.67;87.09;97952.22;18296737;32;19937;-58
2023/04/19 10:49:46;;;;;;;;;;;;;;;15.24;86.66;97950.37;18296996;32;20005;-57
2023/04/19 11:00:09;;;;;;;;;;;;;;;15.20;80.72;97951.28;18296685;32;19945;-57
2023/04/19 11:10:12;;;;;;;;;;;;;;;15.21;81.14;97933.81;18296071;32;19950;-57
2023/04/19 11:20:14;;;;;;;;;;;;;;;14.87;77.17;97929.38;18295524;32;19965;-57
2023/04/19 11:30:19;;;;;;;;;;;;;;;14.61;84.90;97921.50;18295241;32;19975;-58
2023/04/19 11:40:22;;;;;;;;;;;;;;;14.63;81.43;97905.69;18294413;32;19977;-57
2023/04/19 11:50:38;;;;;;;;;;;;;;;14.48;85.41;97889.53;18285071;32;19957;-57
2023/04/19 12:00:45;;;;;;;;;;;;;;;14.77;79.60;97885.94;18305670;32;20294;-57
2023/04/19 12:10:56;;;;;;;;;;;;;;;14.65;79.98;97881.75;18290962;32;20002;-57
2023/04/19 12:21:02;;;;;;;;;;;;;;;15.06;75.69;97869.47;18304468;32;19958;-58
2023/04/19 12:31:05;;;;;;;;;;;;;;;15.35;80.27;97868.53;18304123;32;20033;-58
2023/04/19 12:41:07;;;;;;;;;;;;;;;15.62;74.14;97867.00;18303158;32;19953;-57
2023/04/19 12:51:10;;;;;;;;;;;;;;;15.41;72.55;97850.97;18302748;32;19957;-58
2023/04/19 13:01:12;;;;;;;;;;;;;;;15.71;70.40;97846.13;18302231;32;20257;-57
2023/04/19 13:11:16;;;;;;;;;;;;;;;16.16;64.65;97832.00;18301858;32;20073;-58
2023/04/19 13:21:19;;;;;;;;;;;;;;;17.05;61.89;97818.94;18287623;32;19993;-58
2023/04/19 13:31:21;;;;;;;;;;;;;;;17.89;58.96;97809.19;18300853;32;19969;-58
2023/04/19 13:41:24;;;;;;;;;;;;;;;16.54;59.50;97799.00;18300381;32;20359;-58
2023/04/19 13:51:26;;;;;;;;;;;;;;;15.20;66.55;97785.13;18299787;32;19973;-58
2023/04/19 14:01:43;;;;;;;;;;;;;;;14.65;72.39;97770.16;18299439;32;19967;-58
2023/04/19 14:11:47;;;;;;;;;;;;;;;14.32;73.05;97761.03;18284886;32;19965;-57
2023/04/19 14:21:50;;;;;;;;;;;;;;;14.13;74.99;97759.13;18285395;32;19988;-57
2023/04/19 14:31:52;;;;;;;;;;;;;;;13.93;71.67;97729.47;18297939;32;20009;-57
2023/04/19 14:41:56;;;;;;;;;;;;;;;13.85;75.69;97715.44;18283780;32;19949;-58
2023/04/19 14:51:59;;;;;;;;;;;;;;;14.21;75.91;97712.25;18283130;32;19949;-58
2023/04/19 15:02:01;;;;;;;;;;;;;;;14.31;77.44;97699.63;18296280;32;19964;-58
2023/04/19 15:12:03;;;;;;;;;;;;;;;14.47;75.90;97698.28;18282112;32;19995;-58
2023/04/19 15:22:05;;;;;;;;;;;;;;;14.61;78.00;97697.53;18295149;32;20337;-58
2023/04/19 15:32:08;;;;;;;;;;;;;;;14.82;72.70;97681.72;18295117;32;19964;-57
2023/04/19 15:42:10;;;;;;;;;;;;;;;15.04;75.65;97675.63;18295103;32;20373;-58
2023/04/19 15:52:13;;;;;;;;;;;;;;;15.27;73.45;97662.16;18294715;32;19982;-58
2023/04/19 16:02:15;;;;;;;;;;;;;;;15.55;70.72;97661.09;18294274;32;20372;-58
2023/04/19 16:12:18;;;;;;;;;;;;;;;15.39;72.86;97651.59;18293797;32;19973;-58
2023/04/19 16:22:21;;;;;;;;;;;;;;;15.46;72.25;97662.88;18279724;32;20364;-58
2023/04/19 16:32:23;;;;;;;;;;;;;;;15.11;74.04;97656.19;18279523;32;19976;-57
2023/04/19 16:42:26;;;;;;;;;;;;;;;14.81;78.04;97652.87;18301513;32;19987;-58
2023/04/19 16:52:30;;;;;;;;;;;;;;;14.28;83.29;97651.22;18302749;32;19953;-58
2023/04/19 17:02:33;;;;;;;;;;;;;;;14.08;81.87;97639.53;18302295;32;19950;-57
2023/04/19 17:12:36;;;;;;;;;;;;;;;13.45;86.92;97633.28;18301987;32;19961;-58
2023/04/19 17:22:38;;;;;;;;;;;;;;;13.15;93.76;97623.53;18301719;32;19957;-58
2023/04/19 17:32:40;;;;;;;;;;;;;;;12.94;94.55;97625.66;18287818;32;19950;-58
2023/04/19 17:42:43;;;;;;;;;;;;;;;12.75;97.15;97622.87;18300671;32;19953;-58
2023/04/19 17:52:46;;;;;;;;;;;;;;;12.45;99.38;97611.97;18299938;32;19949;-57
2023/04/19 18:02:48;;;;;;;;;;;;;;;12.17;99.13;97608.13;18299734;32;19945;-57
2023/04/19 18:12:52;;;;;;;;;;;;;;;11.93;100.00;97610.69;18299155;32;19960;-57
2023/04/19 18:22:57;;;;;;;;;;;;;;;11.70;100.00;97602.13;18298711;32;20271;-57
2023/04/19 18:33:00;;;;;;;;;;;;;;;11.49;100.00;97609.56;18271801;32;20334;-57
2023/04/19 18:43:03;;;;;;;;;;;;;;;11.29;100.00;97608.56;18297461;32;19946;-57
2023/04/19 18:53:05;;;;;;;;;;;;;;;11.03;100.00;97607.78;18270959;32;19997;-58
2023/04/19 19:03:08;;;;;;;;;;;;;;;10.82;100.00;97607.03;18296048;32;19953;-58
2023/04/19 19:13:30;;;;;;;;;;;;;;;10.77;100.00;97612.44;18282241;32;19986;-57
2023/04/19 19:23:33;;;;;;;;;;;;;;;10.62;100.00;97621.38;18295841;32;19953;-58
2023/04/19 19:33:40;;;;;;;;;;;;;;;10.47;100.00;97617.63;18295160;32;20004;-57
2023/04/19 19:43:44;;;;;;;;;;;;;;;10.42;100.00;97612.19;18280699;32;20381;-58
2023/04/19 19:53:46;;;;;;;;;;;;;;;10.27;100.00;97618.38;18294333;32;19968;-57
2023/04/19 20:03:49;;;;;;;;;;;;;;;10.19;100.00;97621.63;18294185;32;19960;-58
2023/04/19 20:13:51;;;;;;;;;;;;;;;10.16;100.00;97631.06;18287211;32;20349;-58
2023/04/19 20:23:54;;;;;;;;;;;;;;;9.96;100.00;97664.28;18304423;32;19997;-56
2023/04/19 20:33:57;;;;;;;;;;;;;;;9.31;100.00;97682.63;18290150;32;20045;-57
2023/04/19 20:44:01;;;;;;;;;;;;;;;8.42;100.00;97674.94;18303435;32;19953;-57
2023/04/19 20:54:03;;;;;;;;;;;;;;;7.92;100.00;97693.03;18302987;32;19957;-57
2023/04/19 21:04:07;;;;;;;;;;;;;;;7.50;100.00;97690.91;18288980;32;19937;-57
2023/04/19 21:14:10;;;;;;;;;;;;;;;7.24;100.00;97700.50;18302105;32;19995;-57
2023/04/19 21:24:12;;;;;;;;;;;;;;;7.00;100.00;97697.19;18301088;32;20351;-57
2023/04/19 21:34:14;;;;;;;;;;;;;;;6.86;100.00;97700.19;18301149;32;20318;-57
2023/04/19 21:44:17;;;;;;;;;;;;;;;6.78;100.00;97704.13;18300187;32;20256;-59
2023/04/19 21:54:20;;;;;;;;;;;;;;;6.68;100.00;97713.91;18300024;32;20013;-59
2023/04/19 22:04:35;;;;;;;;;;;;;;;6.66;100.00;97706.09;18299617;32;19961;-59
2023/04/19 22:14:37;;;;;;;;;;;;;;;6.61;100.00;97709.47;18298633;32;20361;-59
2023/04/19 22:24:40;;;;;;;;;;;;;;;6.54;100.00;97703.47;18285046;32;20008;-59
2023/04/19 22:34:58;;;;;;;;;;;;;;;6.36;100.00;97691.06;18297235;32;20327;-59
2023/04/19 22:45:00;;;;;;;;;;;;;;;6.32;100.00;97679.19;18297330;32;20005;-59
2023/04/19 22:55:03;;;;;;;;;;;;;;;6.30;100.00;97670.53;18283130;32;20001;-59
2023/04/19 23:05:05;;;;;;;;;;;;;;;6.19;100.00;97642.69;18296371;32;20001;-59
2023/04/19 23:15:09;;;;;;;;;;;;;;;6.09;100.00;97615.69;18296056;32;20005;-59
2023/04/19 23:25:11;;;;;;;;;;;;;;;5.98;100.00;97630.81;18295900;32;20287;-59
2023/04/19 23:35:13;;;;;;;;;;;;;;;5.98;100.00;97608.53;18295351;32;19965;-59
2023/04/19 23:45:16;;;;;;;;;;;;;;;5.99;100.00;97604.75;18282709;32;19985;-59
2023/04/19 23:55:18;;;;;;;;;;;;;;;5.93;100.00;97595.78;18292255;32;19968;-59
